Time;durP1;ratioP1;P1;durP2;ratioP2;P2;SDS_P1;SDS_P2;PMS_P1;PMS_P2;Temp;Humidity;BMP_temperature;BMP_pressure;BME280_temperature;BME280_humidity;BME280_pressure;Samples;Min_cycle;Max_cycle;Signal;HPM_P1;HPM_P2
2023/03/01 00:00:03;;;;;;;34.90;16.15;;;;;;;;;;5057570;28;20060;-79
2023/03/01 00:02:30;;;;;;;31.50;15.98;;;;;;;;;;5051927;28;20106;-78
2023/03/01 00:04:58;;;;;;;32.63;16.20;;;;;;;;;;5049386;28;20101;-79
2023/03/01 00:07:25;;;;;;;31.70;15.93;;;;;;;;;;5047765;28;20056;-78
2023/03/01 00:09:51;;;;;;;25.20;14.63;;;;;;;;;;5050853;28;20143;-79
2023/03/01 00:12:18;;;;;;;30.42;15.85;;;;;;;;;;5047620;28;20049;-78
2023/03/01 00:14:45;;;;;;;32.55;15.95;;;;;;;;;;5047375;28;20046;-78
2023/03/01 00:17:12;;;;;;;31.15;15.70;;;;;;;;;;5047872;28;20041;-79
2023/03/01 00:19:39;;;;;;;32.83;16.52;;;;;;;;;;5045222;28;20056;-79
2023/03/01 00:22:07;;;;;;;32.28;15.85;;;;;;;;;;5049873;28;20048;-80
2023/03/01 00:24:33;;;;;;;28.85;15.68;;;;;;;;;;5053412;28;20049;-79
2023/03/01 00:27:00;;;;;;;33.35;16.10;;;;;;;;;;5047524;28;20053;-78
2023/03/01 00:29:27;;;;;;;28.98;15.00;;;;;;;;;;5050110;28;20095;-78
2023/03/01 00:31:53;;;;;;;32.60;15.80;;;;;;;;;;5049855;28;20108;-78
2023/03/01 00:34:20;;;;;;;30.02;16.20;;;;;;;;;;5049251;28;20053;-78
2023/03/01 00:36:47;;;;;;;27.98;14.77;;;;;;;;;;5047248;28;20042;-78
2023/03/01 00:39:16;;;;;;;29.65;15.85;;;;;;;;;;5049108;28;20052;-78
2023/03/01 00:41:44;;;;;;;27.02;15.13;;;;;;;;;;5047247;28;20052;-77
2023/03/01 00:44:11;;;;;;;30.35;15.50;;;;;;;;;;5043015;28;20049;-80
2023/03/01 00:46:38;;;;;;;28.35;15.00;;;;;;;;;;5040116;28;20077;-80
2023/03/01 00:49:05;;;;;;;30.88;15.80;;;;;;;;;;5045863;28;20564;-79
2023/03/01 00:51:32;;;;;;;29.08;15.40;;;;;;;;;;5044539;28;20068;-78
2023/03/01 00:54:01;;;;;;;28.27;15.50;;;;;;;;;;5044051;28;20112;-78
2023/03/01 00:56:30;;;;;;;29.23;15.50;;;;;;;;;;5043831;28;20081;-79
2023/03/01 00:58:57;;;;;;;26.73;15.27;;;;;;;;;;5043788;28;20055;-77
2023/03/01 01:01:27;;;;;;;28.40;15.68;;;;;;;;;;5043691;28;20111;-79
2023/03/01 01:03:55;;;;;;;31.65;16.17;;;;;;;;;;5043878;28;20073;-78
2023/03/01 01:06:24;;;;;;;32.08;16.05;;;;;;;;;;5043426;28;20041;-78
2023/03/01 01:08:52;;;;;;;30.65;17.42;;;;;;;;;;5043601;28;20069;-77
2023/03/01 01:11:19;;;;;;;27.10;15.10;;;;;;;;;;5042973;28;20084;-78
2023/03/01 01:13:48;;;;;;;28.52;15.90;;;;;;;;;;5043655;28;20076;-78
2023/03/01 01:16:16;;;;;;;32.28;16.13;;;;;;;;;;5043629;28;20050;-78
2023/03/01 01:18:44;;;;;;;30.75;16.38;;;;;;;;;;5042643;28;20103;-78
2023/03/01 01:21:12;;;;;;;29.02;15.80;;;;;;;;;;5041486;28;20045;-78
2023/03/01 01:23:39;;;;;;;27.65;14.45;;;;;;;;;;5042863;28;20081;-78
2023/03/01 01:26:07;;;;;;;29.38;15.88;;;;;;;;;;5044173;28;20088;-77
2023/03/01 01:28:34;;;;;;;32.60;16.08;;;;;;;;;;5042408;28;20174;-78
2023/03/01 01:31:02;;;;;;;29.77;15.40;;;;;;;;;;5040938;28;20045;-80
2023/03/01 01:33:29;;;;;;;28.08;15.38;;;;;;;;;;5040901;28;20069;-78
2023/03/01 01:35:56;;;;;;;28.65;15.27;;;;;;;;;;5042247;28;20046;-78
2023/03/01 01:38:23;;;;;;;31.88;17.00;;;;;;;;;;5040397;28;20049;-78
2023/03/01 01:40:50;;;;;;;28.75;15.32;;;;;;;;;;5040648;28;20056;-77
2023/03/01 01:43:24;;;;;;;28.92;15.35;;;;;;;;;;5040457;28;20080;-81
2023/03/01 01:45:51;;;;;;;33.17;16.00;;;;;;;;;;5040699;28;20045;-79
2023/03/01 01:48:22;;;;;;;33.08;15.82;;;;;;;;;;5039207;28;20065;-79
2023/03/01 01:50:56;;;;;;;30.42;16.48;;;;;;;;;;5039804;28;20045;-78
2023/03/01 01:53:23;;;;;;;35.83;16.30;;;;;;;;;;5040573;28;20128;-78
2023/03/01 01:55:54;;;;;;;29.35;15.82;;;;;;;;;;5059253;22;20072;-77
2023/03/01 01:58:21;;;;;;;;;;;;;;;;;;5027466;28;20484;-76
2023/03/01 02:00:50;;;;;;;30.02;15.45;;;;;;;;;;5032796;28;20015;-77
2023/03/01 02:03:23;;;;;;;31.10;16.00;;;;;;;;;;5032957;28;20136;-77
2023/03/01 02:05:56;;;;;;;25.92;14.25;;;;;;;;;;5032393;28;20124;-77
2023/03/01 02:08:27;;;;;;;33.35;15.25;;;;;;;;;;5032785;28;20045;-77
2023/03/01 02:10:55;;;;;;;32.20;15.73;;;;;;;;;;5032729;28;20140;-76
2023/03/01 02:13:22;;;;;;;30.92;15.75;;;;;;;;;;5033112;28;20088;-77
2023/03/01 02:15:49;;;;;;;28.33;14.82;;;;;;;;;;5032364;28;20057;-77
2023/03/01 02:18:19;;;;;;;29.08;16.40;;;;;;;;;;5034053;28;20132;-77
2023/03/01 02:21:04;;;;;;;31.33;15.93;;;;;;;;;;5035219;28;20132;-77
2023/03/01 02:23:31;;;;;;;29.63;14.77;;;;;;;;;;5047325;28;20052;-76
2023/03/01 02:26:04;;;;;;;31.73;16.83;;;;;;;;;;5054154;28;20113;-77
2023/03/01 02:28:34;;;;;;;31.05;15.93;;;;;;;;;;5053901;28;20109;-76
2023/03/01 02:33:48;;;;;;;27.65;15.73;;;;;;;;;;5052777;28;20080;-75
2023/03/01 02:36:18;;;;;;;31.23;15.63;;;;;;;;;;5053315;28;20148;-75
2023/03/01 02:38:45;;;;;;;29.57;15.37;;;;;;;;;;5054631;28;20046;-75
2023/03/01 02:41:14;;;;;;;30.58;15.73;;;;;;;;;;5051641;28;20286;-75
2023/03/01 02:43:42;;;;;;;30.80;15.40;;;;;;;;;;5052609;28;20109;-75
2023/03/01 02:46:15;;;;;;;33.20;16.45;;;;;;;;;;5052652;28;20116;-75
2023/03/01 02:48:44;;;;;;;30.35;15.70;;;;;;;;;;5051687;28;20069;-76
2023/03/01 02:51:24;;;;;;;31.00;15.38;;;;;;;;;;5051720;28;20033;-75
2023/03/01 02:53:59;;;;;;;29.25;16.70;;;;;;;;;;5046581;28;20524;-76
2023/03/01 02:56:26;;;;;;;28.50;15.75;;;;;;;;;;5033866;28;20131;-77
2023/03/01 02:59:00;;;;;;;32.65;17.08;;;;;;;;;;5026341;28;20037;-75
2023/03/01 03:01:36;;;;;;;28.73;16.70;;;;;;;;;;5038321;28;20076;-75
2023/03/01 03:04:03;;;;;;;27.77;15.23;;;;;;;;;;5038604;28;20136;-75
2023/03/01 03:06:30;;;;;;;31.05;16.20;;;;;;;;;;5039720;28;20048;-76
2023/03/01 03:08:57;;;;;;;33.45;16.95;;;;;;;;;;5036991;28;20488;-77
2023/03/01 03:11:24;;;;;;;30.90;15.45;;;;;;;;;;5037726;28;20111;-76
2023/03/01 03:13:51;;;;;;;34.50;16.08;;;;;;;;;;5037450;28;20105;-77
2023/03/01 03:16:20;;;;;;;31.73;16.67;;;;;;;;;;5037266;28;20060;-77
2023/03/01 03:18:47;;;;;;;30.45;16.83;;;;;;;;;;5036984;28;20484;-77
2023/03/01 03:21:14;;;;;;;34.22;16.65;;;;;;;;;;5035702;28;20524;-76
2023/03/01 03:23:40;;;;;;;31.08;17.27;;;;;;;;;;5034190;28;20128;-77
2023/03/01 03:26:07;;;;;;;31.63;16.33;;;;;;;;;;5033009;28;20059;-78
2023/03/01 03:28:39;;;;;;;32.75;16.45;;;;;;;;;;5031465;28;20559;-75
2023/03/01 03:31:07;;;;;;;31.33;17.17;;;;;;;;;;5031148;28;20077;-76
2023/03/01 03:33:35;;;;;;;33.05;16.10;;;;;;;;;;5031833;28;20051;-78
2023/03/01 03:36:01;;;;;;;32.30;17.05;;;;;;;;;;5032801;28;20088;-78
2023/03/01 03:38:29;;;;;;;30.70;16.13;;;;;;;;;;5032545;28;20057;-76
2023/03/01 03:41:03;;;;;;;27.80;15.27;;;;;;;;;;5032129;28;20574;-76
2023/03/01 03:43:31;;;;;;;29.27;15.68;;;;;;;;;;5012949;28;20050;-77
2023/03/01 03:45:58;;;;;;;27.52;15.63;;;;;;;;;;5013823;28;20052;-77
2023/03/01 03:48:25;;;;;;;34.13;15.85;;;;;;;;;;5031715;28;20045;-77
2023/03/01 03:50:55;;;;;;;30.58;15.60;;;;;;;;;;5031842;28;20491;-78
2023/03/01 03:53:24;;;;;;;30.88;16.33;;;;;;;;;;5032412;28;20482;-78
2023/03/01 03:55:51;;;;;;;32.60;16.77;;;;;;;;;;5036170;28;20144;-77
2023/03/01 03:58:19;;;;;;;30.60;15.95;;;;;;;;;;5035142;28;20053;-78
2023/03/01 04:00:47;;;;;;;34.08;17.42;;;;;;;;;;5034989;28;20046;-79
2023/03/01 04:03:16;;;;;;;29.83;16.95;;;;;;;;;;5034594;28;20045;-77
2023/03/01 04:05:43;;;;;;;31.02;16.15;;;;;;;;;;5030925;28;20066;-78
2023/03/01 04:08:11;;;;;;;29.63;15.55;;;;;;;;;;5030545;28;20121;-78
2023/03/01 04:10:40;;;;;;;32.08;16.60;;;;;;;;;;5034273;28;20125;-77
2023/03/01 04:13:11;;;;;;;30.15;15.80;;;;;;;;;;5035613;28;20073;-77
2023/03/01 04:15:37;;;;;;;29.58;15.80;;;;;;;;;;5034462;28;20073;-77
2023/03/01 04:18:05;;;;;;;32.40;15.68;;;;;;;;;;5034298;28;20136;-77
2023/03/01 04:20:34;;;;;;;32.88;15.90;;;;;;;;;;5034409;28;20053;-77
2023/03/01 04:23:10;;;;;;;31.50;16.50;;;;;;;;;;5014755;28;20408;-77
2023/03/01 04:25:38;;;;;;;30.70;15.32;;;;;;;;;;5015133;28;20081;-76
2023/03/01 04:28:06;;;;;;;32.10;16.38;;;;;;;;;;5017351;28;20176;-77
2023/03/01 04:30:35;;;;;;;34.42;16.55;;;;;;;;;;5034001;28;20140;-77
2023/03/01 04:33:03;;;;;;;29.27;14.85;;;;;;;;;;5034178;28;20054;-76
2023/03/01 04:35:30;;;;;;;34.17;16.85;;;;;;;;;;5034566;28;20046;-77
2023/03/01 04:37:56;;;;;;;33.10;15.77;;;;;;;;;;5034129;28;20146;-77
2023/03/01 04:40:23;;;;;;;28.92;16.55;;;;;;;;;;5034295;28;20100;-77
2023/03/01 04:42:51;;;;;;;29.83;15.40;;;;;;;;;;5034245;28;20084;-76
2023/03/01 04:45:18;;;;;;;31.85;15.25;;;;;;;;;;5032729;28;20045;-76
2023/03/01 04:47:46;;;;;;;29.58;15.27;;;;;;;;;;5032859;28;20198;-77
2023/03/01 04:50:20;;;;;;;32.75;16.00;;;;;;;;;;5033226;28;20052;-78
2023/03/01 04:52:47;;;;;;;30.33;15.27;;;;;;;;;;5033387;28;20060;-78
2023/03/01 04:55:14;;;;;;;34.35;16.80;;;;;;;;;;5034145;28;20132;-77
2023/03/01 04:57:41;;;;;;;32.60;16.75;;;;;;;;;;5033444;28;20136;-77
2023/03/01 05:00:28;;;;;;;27.08;14.70;;;;;;;;;;5038629;28;20415;-76
2023/03/01 05:02:56;;;;;;;32.88;15.90;;;;;;;;;;5040070;28;20562;-77
2023/03/01 05:05:27;;;;;;;31.08;15.05;;;;;;;;;;5039419;28;20132;-76
2023/03/01 05:07:55;;;;;;;34.08;16.20;;;;;;;;;;5037539;28;20049;-76
2023/03/01 05:10:22;;;;;;;34.78;16.08;;;;;;;;;;5036339;28;20168;-76
2023/03/01 05:12:48;;;;;;;27.80;16.25;;;;;;;;;;5036385;28;20053;-77
2023/03/01 05:15:16;;;;;;;32.17;15.95;;;;;;;;;;5035814;28;20501;-78
2023/03/01 05:17:43;;;;;;;34.13;16.20;;;;;;;;;;5034331;28;20085;-76
2023/03/01 05:20:11;;;;;;;30.05;16.45;;;;;;;;;;5033576;28;20042;-75
2023/03/01 05:22:38;;;;;;;31.17;15.63;;;;;;;;;;5034686;28;20147;-77
2023/03/01 05:25:05;;;;;;;33.17;16.02;;;;;;;;;;5035091;28;20120;-76
2023/03/01 05:27:32;;;;;;;31.48;17.02;;;;;;;;;;5033705;28;20084;-77
2023/03/01 05:29:58;;;;;;;32.03;16.55;;;;;;;;;;5033650;28;20084;-77
2023/03/01 05:32:26;;;;;;;31.08;15.82;;;;;;;;;;5034601;28;20049;-77
2023/03/01 05:34:54;;;;;;;37.05;15.90;;;;;;;;;;5034745;28;20041;-77
2023/03/01 05:37:21;;;;;;;31.67;16.02;;;;;;;;;;5034293;28;20045;-76
2023/03/01 05:39:50;;;;;;;31.25;15.63;;;;;;;;;;5033852;28;20084;-77
2023/03/01 05:42:16;;;;;;;33.10;16.45;;;;;;;;;;5035089;28;20673;-77
2023/03/01 05:44:43;;;;;;;30.48;15.00;;;;;;;;;;5034072;28;20050;-77
2023/03/01 05:47:10;;;;;;;30.15;16.83;;;;;;;;;;5036919;28;20136;-77
2023/03/01 05:49:38;;;;;;;31.80;16.05;;;;;;;;;;5035694;28;20144;-77
2023/03/01 05:52:04;;;;;;;30.58;15.50;;;;;;;;;;5035715;28;20128;-77
2023/03/01 05:54:31;;;;;;;30.17;15.32;;;;;;;;;;5034558;28;20050;-75
2023/03/01 05:56:58;;;;;;;36.47;16.80;;;;;;;;;;5033351;28;20046;-77
2023/03/01 05:59:25;;;;;;;32.67;16.33;;;;;;;;;;5034444;28;20128;-77
2023/03/01 06:01:51;;;;;;;29.25;15.25;;;;;;;;;;5033907;28;20077;-77
2023/03/01 06:04:18;;;;;;;33.22;16.75;;;;;;;;;;5034788;28;20169;-77
2023/03/01 06:06:46;;;;;;;31.33;15.68;;;;;;;;;;5034531;28;20057;-78
2023/03/01 06:09:12;;;;;;;33.55;16.77;;;;;;;;;;5034226;28;20080;-77
2023/03/01 06:11:39;;;;;;;33.05;16.77;;;;;;;;;;5034480;28;20087;-77
2023/03/01 06:14:07;;;;;;;31.48;16.55;;;;;;;;;;5035178;28;20049;-76
2023/03/01 06:16:34;;;;;;;31.23;14.90;;;;;;;;;;5035909;28;20049;-76
2023/03/01 06:19:01;;;;;;;31.65;16.38;;;;;;;;;;5035958;28;20133;-77
2023/03/01 06:21:27;;;;;;;29.83;16.30;;;;;;;;;;5035874;28;20092;-77
2023/03/01 06:23:55;;;;;;;33.72;17.33;;;;;;;;;;5033312;28;20052;-77
2023/03/01 06:26:22;;;;;;;34.08;16.88;;;;;;;;;;5033006;28;20129;-76
2023/03/01 06:28:49;;;;;;;31.23;16.65;;;;;;;;;;5032868;28;20052;-77
2023/03/01 06:31:15;;;;;;;35.38;15.77;;;;;;;;;;5033275;28;20134;-76
2023/03/01 06:33:44;;;;;;;37.65;17.75;;;;;;;;;;5032142;28;20423;-77
2023/03/01 06:36:11;;;;;;;34.78;16.77;;;;;;;;;;5033170;28;20149;-77
2023/03/01 06:38:37;;;;;;;33.78;17.42;;;;;;;;;;5032716;28;20480;-77
2023/03/01 06:41:06;;;;;;;31.98;16.27;;;;;;;;;;5032701;28;20045;-77
2023/03/01 06:43:33;;;;;;;33.70;15.35;;;;;;;;;;5031922;28;20053;-77
2023/03/01 06:46:00;;;;;;;35.60;17.58;;;;;;;;;;5032600;28;20136;-77
2023/03/01 06:48:27;;;;;;;36.60;17.33;;;;;;;;;;5032418;28;20048;-77
2023/03/01 06:50:53;;;;;;;33.58;14.32;;;;;;;;;;5032462;28;20072;-76
2023/03/01 06:53:20;;;;;;;33.67;16.80;;;;;;;;;;5032341;28;20128;-77
2023/03/01 06:55:46;;;;;;;34.15;15.55;;;;;;;;;;5032257;28;20103;-77
2023/03/01 06:58:15;;;;;;;33.13;16.85;;;;;;;;;;5033647;28;20060;-77
2023/03/01 07:00:42;;;;;;;29.75;15.57;;;;;;;;;;5041868;28;20113;-76
2023/03/01 07:03:09;;;;;;;35.38;16.77;;;;;;;;;;5050965;28;20042;-76
2023/03/01 07:05:36;;;;;;;34.83;17.30;;;;;;;;;;5038594;28;20664;-76
2023/03/01 07:08:02;;;;;;;33.28;16.25;;;;;;;;;;5038501;28;20113;-76
2023/03/01 07:10:29;;;;;;;32.40;17.10;;;;;;;;;;5036784;28;20511;-77
2023/03/01 07:12:56;;;;;;;37.88;16.83;;;;;;;;;;5036157;28;20140;-76
2023/03/01 07:15:26;;;;;;;33.35;16.50;;;;;;;;;;5015583;28;20141;-76
2023/03/01 07:17:53;;;;;;;32.28;16.67;;;;;;;;;;5030598;28;20069;-77
2023/03/01 07:20:24;;;;;;;32.65;16.10;;;;;;;;;;5046316;28;20105;-76
2023/03/01 07:22:50;;;;;;;32.67;17.42;;;;;;;;;;5043364;28;20045;-76
2023/03/01 07:25:17;;;;;;;30.30;16.05;;;;;;;;;;5039439;28;20057;-78
2023/03/01 07:27:44;;;;;;;34.58;16.67;;;;;;;;;;5033871;28;20064;-77
2023/03/01 07:30:11;;;;;;;33.33;17.77;;;;;;;;;;5039460;28;20416;-77
2023/03/01 07:32:39;;;;;;;30.83;16.50;;;;;;;;;;5037834;28;20099;-76
2023/03/01 07:35:07;;;;;;;28.52;16.20;;;;;;;;;;5038667;28;20563;-76
2023/03/01 07:37:34;;;;;;;33.13;16.00;;;;;;;;;;5036957;28;20084;-76
2023/03/01 07:40:00;;;;;;;35.15;17.25;;;;;;;;;;5028011;28;20129;-77
2023/03/01 07:42:27;;;;;;;36.38;17.42;;;;;;;;;;5036934;28;20045;-77
2023/03/01 07:44:53;;;;;;;35.35;17.17;;;;;;;;;;5026364;28;20053;-77
2023/03/01 07:47:20;;;;;;;33.25;16.70;;;;;;;;;;5037927;28;20041;-77
2023/03/01 07:49:48;;;;;;;34.83;17.63;;;;;;;;;;5022857;28;20121;-76
2023/03/01 07:52:15;;;;;;;36.85;16.85;;;;;;;;;;5035215;28;20060;-76
2023/03/01 07:54:44;;;;;;;30.20;14.77;;;;;;;;;;5032396;28;20054;-77
2023/03/01 07:57:11;;;;;;;36.45;17.63;;;;;;;;;;5032563;28;20038;-77
2023/03/01 07:59:37;;;;;;;35.60;16.75;;;;;;;;;;5015273;28;20050;-76
2023/03/01 08:02:04;;;;;;;35.15;15.63;;;;;;;;;;5020731;28;20124;-78
2023/03/01 08:04:31;;;;;;;38.38;16.42;;;;;;;;;;5034314;28;20129;-78
2023/03/01 08:06:59;;;;;;;34.67;17.02;;;;;;;;;;5027890;28;20136;-77
2023/03/01 08:09:26;;;;;;;35.90;16.50;;;;;;;;;;5029882;28;20045;-78
2023/03/01 08:11:54;;;;;;;33.85;16.38;;;;;;;;;;5017530;28;20556;-79
2023/03/01 08:14:20;;;;;;;37.70;16.70;;;;;;;;;;5034751;28;20680;-75
2023/03/01 08:16:50;;;;;;;36.38;17.13;;;;;;;;;;5033115;28;20073;-78
2023/03/01 08:19:16;;;;;;;34.72;17.73;;;;;;;;;;5031300;28;20129;-75
2023/03/01 08:21:43;;;;;;;34.95;17.73;;;;;;;;;;5032522;28;20542;-76
2023/03/01 08:24:11;;;;;;;34.83;17.60;;;;;;;;;;5032330;28;20045;-75
2023/03/01 08:26:38;;;;;;;35.90;16.75;;;;;;;;;;5032875;28;20048;-75
2023/03/01 08:29:04;;;;;;;33.95;16.83;;;;;;;;;;5032613;28;20071;-75
2023/03/01 08:31:35;;;;;;;34.97;17.05;;;;;;;;;;5033139;28;20128;-77
2023/03/01 08:34:03;;;;;;;35.95;16.90;;;;;;;;;;5013505;28;20058;-76
2023/03/01 08:36:33;;;;;;;37.35;17.27;;;;;;;;;;5030827;28;20056;-76
2023/03/01 08:39:00;;;;;;;32.28;17.33;;;;;;;;;;5031282;28;20136;-76
2023/03/01 08:41:28;;;;;;;35.22;16.60;;;;;;;;;;5023413;28;20042;-76
2023/03/01 08:43:58;;;;;;;36.72;17.92;;;;;;;;;;5012517;28;20045;-76
2023/03/01 08:46:25;;;;;;;37.22;18.02;;;;;;;;;;5027818;28;20045;-77
2023/03/01 08:48:52;;;;;;;36.90;17.45;;;;;;;;;;5031898;28;20060;-78
2023/03/01 08:51:20;;;;;;;36.15;17.02;;;;;;;;;;5027351;28;20390;-76
2023/03/01 08:53:47;;;;;;;34.72;17.33;;;;;;;;;;5013816;28;20098;-76
2023/03/01 08:56:14;;;;;;;36.00;17.63;;;;;;;;;;5025037;28;20045;-76
2023/03/01 08:58:45;;;;;;;39.75;17.98;;;;;;;;;;5032956;28;20412;-76
2023/03/01 09:01:14;;;;;;;31.55;16.30;;;;;;;;;;5032143;28;20133;-76
2023/03/01 09:03:42;;;;;;;32.97;17.10;;;;;;;;;;5032642;28;20041;-76
2023/03/01 09:06:09;;;;;;;39.35;18.30;;;;;;;;;;5024976;28;20042;-77
2023/03/01 09:08:36;;;;;;;36.20;16.80;;;;;;;;;;5012796;28;20089;-76
2023/03/01 09:11:03;;;;;;;36.92;17.80;;;;;;;;;;5020442;28;20056;-76
2023/03/01 09:13:31;;;;;;;37.47;18.10;;;;;;;;;;5031911;28;20129;-76
2023/03/01 09:16:00;;;;;;;36.08;18.10;;;;;;;;;;5031833;28;20100;-76
2023/03/01 09:18:26;;;;;;;41.63;17.98;;;;;;;;;;5031151;28;20088;-76
2023/03/01 09:20:54;;;;;;;37.50;16.40;;;;;;;;;;5020197;28;20095;-79
2023/03/01 09:23:21;;;;;;;36.85;17.80;;;;;;;;;;5034580;23;20062;-79
2023/03/01 09:25:48;;;;;;;38.03;17.90;;;;;;;;;;5059766;28;20049;-81
2023/03/01 09:28:15;;;;;;;40.08;19.05;;;;;;;;;;5058047;28;20048;-81
2023/03/01 09:30:41;;;;;;;38.88;17.08;;;;;;;;;;5056898;28;20048;-80
2023/03/01 09:33:14;;;;;;;39.28;18.83;;;;;;;;;;5057178;28;20075;-78
2023/03/01 09:35:45;;;;;;;36.67;17.67;;;;;;;;;;5053670;28;20052;-80
2023/03/01 09:38:12;;;;;;;34.35;16.58;;;;;;;;;;5062656;28;20040;-79
2023/03/01 09:40:45;;;;;;;35.05;17.00;;;;;;;;;;5061780;28;20583;-78
2023/03/01 09:43:21;;;;;;;33.65;15.95;;;;;;;;;;5060847;28;20045;-79
2023/03/01 09:45:51;;;;;;;37.05;15.85;;;;;;;;;;5058048;28;20124;-79
2023/03/01 09:48:23;;;;;;;35.50;16.63;;;;;;;;;;5058629;28;20040;-79
2023/03/01 09:50:50;;;;;;;34.85;15.70;;;;;;;;;;5054752;28;20294;-79
2023/03/01 09:53:19;;;;;;;32.28;16.25;;;;;;;;;;5058558;28;20135;-79
2023/03/01 09:55:49;;;;;;;32.45;17.13;;;;;;;;;;5056663;28;20073;-80
2023/03/01 09:58:36;;;;;;;35.27;16.43;;;;;;;;;;5043075;28;20045;-80
2023/03/01 10:01:15;;;;;;;34.55;17.13;;;;;;;;;;5047560;28;20434;-80
2023/03/01 10:03:49;;;;;;;35.78;16.63;;;;;;;;;;5055986;28;20136;-81
2023/03/01 10:06:23;;;;;;;33.30;17.00;;;;;;;;;;5054444;28;20112;-80
2023/03/01 10:08:55;;;;;;;33.13;17.23;;;;;;;;;;5039634;28;20053;-80
2023/03/01 10:11:25;;;;;;;39.85;17.23;;;;;;;;;;5038638;28;20073;-80
2023/03/01 10:13:59;;;;;;;34.65;16.70;;;;;;;;;;5038487;28;20661;-80
2023/03/01 10:16:32;;;;;;;39.65;16.88;;;;;;;;;;5038562;28;20049;-81
2023/03/01 10:19:04;;;;;;;36.63;17.60;;;;;;;;;;5038076;28;20536;-80
2023/03/01 10:21:32;;;;;;;39.80;17.52;;;;;;;;;;5054714;28;20045;-81
2023/03/01 10:24:10;;;;;;;36.83;18.30;;;;;;;;;;5058898;28;20068;-80
2023/03/01 10:26:53;;;;;;;35.63;18.65;;;;;;;;;;5043809;28;20128;-80
2023/03/01 10:29:26;;;;;;;39.95;19.13;;;;;;;;;;5040850;28;20045;-81
2023/03/01 10:31:54;;;;;;;37.88;18.38;;;;;;;;;;5056517;28;20076;-80
2023/03/01 10:34:28;;;;;;;37.10;18.55;;;;;;;;;;5060381;28;20046;-81
2023/03/01 10:36:58;;;;;;;37.72;19.27;;;;;;;;;;5045113;28;20049;-81
2023/03/01 10:39:26;;;;;;;37.07;18.77;;;;;;;;;;5040160;28;20145;-81
2023/03/01 10:41:57;;;;;;;42.13;19.75;;;;;;;;;;5041931;28;20109;-81
2023/03/01 10:44:39;;;;;;;34.35;18.98;;;;;;;;;;5040524;28;20053;-78
2023/03/01 10:47:12;;;;;;;36.47;18.77;;;;;;;;;;5055469;28;20063;-80
2023/03/01 10:49:53;;;;;;;38.85;18.52;;;;;;;;;;5056027;28;20045;-80
2023/03/01 10:52:22;;;;;;;43.55;20.08;;;;;;;;;;5057833;28;20104;-80
2023/03/01 10:54:54;;;;;;;39.35;20.00;;;;;;;;;;5050324;28;20041;-78
2023/03/01 10:57:36;;;;;;;39.83;20.17;;;;;;;;;;5041563;28;20626;-81
2023/03/01 11:00:19;;;;;;;39.03;18.92;;;;;;;;;;5042639;28;20045;-83
2023/03/01 11:02:49;;;;;;;40.53;19.70;;;;;;;;;;5047016;28;20120;-81
2023/03/01 11:05:24;;;;;;;39.90;19.80;;;;;;;;;;5050023;28;20140;-81
2023/03/01 11:08:01;;;;;;;39.20;19.23;;;;;;;;;;5053604;28;20049;-80
2023/03/01 11:10:30;;;;;;;41.88;19.48;;;;;;;;;;5049068;28;20049;-81
2023/03/01 11:13:08;;;;;;;40.45;19.92;;;;;;;;;;5052993;28;20127;-81
2023/03/01 11:15:35;;;;;;;36.30;19.45;;;;;;;;;;5039092;28;20057;-80
2023/03/01 11:18:03;;;;;;;38.40;19.70;;;;;;;;;;5037394;28;20638;-81
2023/03/01 11:20:34;;;;;;;38.33;19.67;;;;;;;;;;5051010;28;20534;-81
2023/03/01 11:23:07;;;;;;;38.17;19.35;;;;;;;;;;5054034;28;20123;-81
2023/03/01 11:25:37;;;;;;;42.97;20.40;;;;;;;;;;5040530;28;20052;-80
2023/03/01 11:28:06;;;;;;;40.17;19.98;;;;;;;;;;5035939;28;20060;-82
2023/03/01 11:30:38;;;;;;;40.05;19.20;;;;;;;;;;5036491;28;20091;-83
2023/03/01 11:33:14;;;;;;;36.50;17.67;;;;;;;;;;5037196;28;20136;-81
2023/03/01 11:35:49;;;;;;;39.20;18.77;;;;;;;;;;5050355;28;20059;-80
2023/03/01 11:38:23;;;;;;;39.50;19.52;;;;;;;;;;5051986;28;20056;-80
2023/03/01 11:40:58;;;;;;;38.78;19.15;;;;;;;;;;5050147;28;20041;-78
2023/03/01 11:43:30;;;;;;;41.00;20.75;;;;;;;;;;5051472;28;20663;-81
2023/03/01 11:46:42;;;;;;;39.70;19.83;;;;;;;;;;5046441;28;20526;-80
2023/03/01 11:49:23;;;;;;;40.00;20.30;;;;;;;;;;4972710;28;20089;-81
2023/03/01 11:52:02;;;;;;;43.15;19.60;;;;;;;;;;5027853;28;20114;-81
2023/03/01 11:54:42;;;;;;;39.58;19.20;;;;;;;;;;5047841;28;20052;-83
2023/03/01 11:57:21;;;;;;;42.50;20.55;;;;;;;;;;5055640;28;20508;-81
2023/03/01 12:00:10;;;;;;;38.08;19.88;;;;;;;;;;5043050;28;20049;-80
2023/03/01 12:03:01;;;;;;;35.45;19.70;;;;;;;;;;5037714;28;20057;-82
2023/03/01 12:06:03;;;;;;;40.50;19.80;;;;;;;;;;5035756;28;20046;-84
2023/03/01 12:08:36;;;;;;;38.03;19.33;;;;;;;;;;5035696;28;20053;-87
2023/03/01 12:11:14;;;;;;;43.80;19.80;;;;;;;;;;5036515;28;20053;-81
2023/03/01 12:13:58;;;;;;;46.25;21.65;;;;;;;;;;5034299;28;20046;-81
2023/03/01 12:16:34;;;;;;;37.05;18.17;;;;;;;;;;5039440;28;20049;-82
2023/03/01 12:19:27;;;;;;;40.55;19.88;;;;;;;;;;5038955;28;20049;-79
2023/03/01 12:22:14;;;;;;;37.38;19.83;;;;;;;;;;5057480;28;20049;-80
2023/03/01 12:25:06;;;;;;;36.72;20.10;;;;;;;;;;5055483;28;20177;-80
2023/03/01 12:28:05;;;;;;;40.08;19.83;;;;;;;;;;5049126;28;20484;-80
2023/03/01 12:30:44;;;;;;;41.25;21.02;;;;;;;;;;5039830;28;20138;-82
2023/03/01 12:33:20;;;;;;;40.22;20.38;;;;;;;;;;5040662;28;20108;-81
2023/03/01 12:36:18;;;;;;;39.78;20.95;;;;;;;;;;5054867;28;20049;-82
2023/03/01 12:38:51;;;;;;;36.50;18.75;;;;;;;;;;5056439;28;20068;-82
2023/03/01 12:41:33;;;;;;;43.90;20.92;;;;;;;;;;5051322;28;20040;-83
2023/03/01 12:44:09;;;;;;;38.13;19.95;;;;;;;;;;5058338;28;20056;-79
2023/03/01 12:46:52;;;;;;;40.55;20.65;;;;;;;;;;5064012;28;20076;-79
2023/03/01 12:49:26;;;;;;;40.92;20.13;;;;;;;;;;5071725;28;20049;-80
2023/03/01 12:52:01;;;;;;;42.78;20.25;;;;;;;;;;5056978;28;20627;-78
2023/03/01 12:54:31;;;;;;;37.30;19.27;;;;;;;;;;5065144;28;20060;-80
2023/03/01 12:57:06;;;;;;;40.05;19.42;;;;;;;;;;5065822;28;20049;-82
2023/03/01 12:59:38;;;;;;;37.60;19.30;;;;;;;;;;5055233;28;20049;-80
2023/03/01 13:02:15;;;;;;;35.72;19.05;;;;;;;;;;5051607;28;20076;-82
2023/03/01 13:05:08;;;;;;;38.30;19.77;;;;;;;;;;5045809;28;20118;-81
2023/03/01 13:07:42;;;;;;;39.15;20.73;;;;;;;;;;5046829;28;20079;-82
2023/03/01 13:10:29;;;;;;;37.35;20.48;;;;;;;;;;5045414;28;20053;-80
2023/03/01 13:13:14;;;;;;;33.42;18.55;;;;;;;;;;5037672;28;20045;-81
2023/03/01 13:15:42;;;;;;;36.58;19.58;;;;;;;;;;5041678;28;20083;-81
2023/03/01 13:18:29;;;;;;;35.78;19.65;;;;;;;;;;5057626;28;20131;-82
2023/03/01 13:21:00;;;;;;;35.78;19.65;;;;;;;;;;5044600;28;20601;-81
2023/03/01 13:23:30;;;;;;;36.42;20.35;;;;;;;;;;5038252;28;20071;-82
2023/03/01 13:26:13;;;;;;;37.83;20.90;;;;;;;;;;5041773;28;20087;-82
2023/03/01 13:28:56;;;;;;;39.90;19.33;;;;;;;;;;5057101;28;20121;-82
2023/03/01 13:32:01;;;;;;;43.35;19.80;;;;;;;;;;5048945;28;20064;-81
2023/03/01 13:34:56;;;;;;;40.33;20.83;;;;;;;;;;5036070;28;20127;-82
2023/03/01 13:37:29;;;;;;;37.75;19.35;;;;;;;;;;5001272;28;20046;-81
2023/03/01 13:39:58;;;;;;;36.60;19.48;;;;;;;;;;5037377;28;20128;-82
2023/03/01 13:42:49;;;;;;;37.15;18.85;;;;;;;;;;5040143;28;20084;-80
2023/03/01 13:45:37;;;;;;;36.83;20.83;;;;;;;;;;5018553;28;20037;-82
2023/03/01 13:48:10;;;;;;;37.00;20.90;;;;;;;;;;5040397;28;20072;-81
2023/03/01 13:50:46;;;;;;;37.10;19.30;;;;;;;;;;5036337;28;20068;-81
2023/03/01 13:53:18;;;;;;;36.67;19.63;;;;;;;;;;5039383;28;20051;-81
2023/03/01 13:55:48;;;;;;;35.65;19.02;;;;;;;;;;5047959;28;20526;-80
2023/03/01 13:58:22;;;;;;;37.38;18.33;;;;;;;;;;5035869;28;20136;-81
2023/03/01 14:00:57;;;;;;;34.53;19.33;;;;;;;;;;5045013;28;20105;-80
2023/03/01 14:03:24;;;;;;;35.20;19.60;;;;;;;;;;5055490;28;20059;-81
2023/03/01 14:06:06;;;;;;;37.13;18.80;;;;;;;;;;5049430;28;20069;-82
2023/03/01 14:08:34;;;;;;;38.97;20.33;;;;;;;;;;5036028;28;20045;-81
2023/03/01 14:11:25;;;;;;;37.72;19.95;;;;;;;;;;5046794;28;20075;-81
2023/03/01 14:14:11;;;;;;;38.03;19.15;;;;;;;;;;5055176;28;20083;-81
2023/03/01 14:16:49;;;;;;;34.72;17.52;;;;;;;;;;5047364;28;20076;-79
2023/03/01 14:19:19;;;;;;;36.17;18.33;;;;;;;;;;5044298;28;20132;-79
2023/03/01 14:21:47;;;;;;;34.80;18.98;;;;;;;;;;5061519;28;20048;-80
2023/03/01 14:24:23;;;;;;;39.60;19.95;;;;;;;;;;5059972;28;20564;-80
2023/03/01 14:26:50;;;;;;;39.22;19.58;;;;;;;;;;5056736;28;20068;-81
2023/03/01 14:29:38;;;;;;;37.55;19.00;;;;;;;;;;5060255;28;20052;-82
2023/03/01 14:32:19;;;;;;;43.83;20.00;;;;;;;;;;5061957;28;20047;-80
2023/03/01 14:34:46;;;;;;;;;;;;;;;;;;5062525;28;20091;-81
2023/03/01 14:37:20;;;;;;;35.35;17.40;;;;;;;;;;5041871;28;19928;-80
2023/03/01 14:39:47;;;;;;;35.15;18.08;;;;;;;;;;5051940;28;20056;-82
2023/03/01 14:42:15;;;;;;;33.90;18.25;;;;;;;;;;5041631;28;20051;-81